createdAt,value
2022-12-12T08:11:11.858Z,98117.50
2022-12-12T08:13:41.220Z,98118.25
2022-12-12T08:16:23.234Z,98123.25
2022-12-12T08:18:53.571Z,98122.84
2022-12-12T08:21:25.899Z,98131.47
2022-12-12T08:24:00.969Z,98138.41
2022-12-12T08:26:30.171Z,98138.28
2022-12-12T08:28:58.540Z,98136.25
2022-12-12T08:31:27.345Z,98135.66
2022-12-12T08:33:55.655Z,98131.94
2022-12-12T08:36:31.516Z,98146.88
2022-12-12T08:39:09.055Z,98148.91
2022-12-12T08:41:41.737Z,98148.91
2022-12-12T08:44:12.116Z,98142.72
2022-12-12T08:46:40.127Z,98153.00
2022-12-12T08:49:09.493Z,98149.03
2022-12-12T08:51:41.582Z,98155.53
2022-12-12T08:54:12.332Z,98149.47
2022-12-12T08:56:41.157Z,98158.09
2022-12-12T08:59:08.608Z,98160.28
2022-12-12T09:01:36.410Z,98151.44
2022-12-12T09:04:04.300Z,98157.13
2022-12-12T09:06:31.685Z,98156.00
2022-12-12T09:08:59.554Z,98150.06
2022-12-12T09:11:27.247Z,98157.75
2022-12-12T09:13:55.782Z,98158.78
2022-12-12T09:16:26.442Z,98154.50
2022-12-12T09:18:53.981Z,98158.63
2022-12-12T09:21:21.709Z,98155.03
2022-12-12T09:23:49.711Z,98153.38
2022-12-12T09:26:18.026Z,98154.41
2022-12-12T09:28:45.496Z,98155.59
2022-12-12T09:31:13.916Z,98152.69
2022-12-12T09:33:43.279Z,98150.34
2022-12-12T09:36:12.409Z,98159.66
2022-12-12T09:38:39.963Z,98155.84
2022-12-12T09:41:20.488Z,98161.09
2022-12-12T09:44:07.712Z,98139.84
2022-12-12T09:47:09.287Z,98154.72
2022-12-12T09:49:56.552Z,98142.03
2022-12-12T09:52:37.809Z,98146.78
2022-12-12T09:55:20.938Z,98153.97
2022-12-12T09:58:03.325Z,98141.13
2022-12-12T10:03:42.799Z,98149.59
2022-12-12T10:06:36.415Z,98144.53
2022-12-12T10:09:41.401Z,98134.03
2022-12-12T10:12:16.546Z,98137.41
2022-12-12T10:14:56.647Z,98143.03
2022-12-12T10:17:42.690Z,98144.41
2022-12-12T10:20:31.329Z,98141.75
2022-12-12T10:23:20.204Z,98141.16
2022-12-12T10:26:29.730Z,98142.84
2022-12-12T10:29:14.878Z,98139.53
2022-12-12T10:32:26.006Z,98135.91
2022-12-12T10:35:33.808Z,98144.41
2022-12-12T10:38:51.031Z,98123.56
2022-12-12T10:41:49.116Z,98123.28
2022-12-12T10:44:49.398Z,98136.94
2022-12-12T10:47:16.750Z,98131.75
2022-12-12T10:49:44.145Z,98125.41
2022-12-12T10:52:22.509Z,98123.00
2022-12-12T10:55:00.015Z,98126.88
2022-12-12T10:57:36.370Z,98130.66
2022-12-12T11:00:38.378Z,98125.22
2022-12-12T11:03:38.891Z,98123.44
2022-12-12T11:06:21.005Z,98117.59
2022-12-12T11:09:07.300Z,98118.69
2022-12-12T11:11:34.774Z,98117.38
2022-12-12T11:14:21.043Z,98114.16
2022-12-12T11:16:48.747Z,98114.22
2022-12-12T11:19:27.384Z,98105.44
2022-12-12T11:22:02.391Z,98103.53
2022-12-12T11:24:34.894Z,98098.03
2022-12-12T11:27:07.514Z,98101.78
2022-12-12T11:29:40.792Z,98092.63
2022-12-12T11:32:32.450Z,98085.50
2022-12-12T11:35:06.562Z,98082.47
2022-12-12T11:37:47.561Z,98068.06
2022-12-12T11:40:36.838Z,98069.63
2022-12-12T11:43:26.671Z,98065.81
2022-12-12T11:46:13.522Z,98062.75
2022-12-12T11:48:53.869Z,98065.09
2022-12-12T11:51:43.176Z,98061.47
2022-12-12T11:54:31.064Z,98050.03
2022-12-12T11:57:47.944Z,98051.22
2022-12-12T12:00:24.297Z,98053.22
2022-12-12T12:03:25.470Z,98051.50
2022-12-12T12:06:36.593Z,98038.38
2022-12-12T12:10:07.055Z,98031.19
2022-12-12T12:13:14.779Z,98030.81
2022-12-12T12:16:47.246Z,98014.81
2022-12-12T12:19:31.447Z,98020.63
2022-12-12T12:23:14.151Z,98012.72
2022-12-12T12:26:36.540Z,98020.81
2022-12-12T12:29:57.174Z,98025.41
2022-12-12T12:33:36.713Z,98016.66
2022-12-12T12:36:33.904Z,98009.72
2022-12-12T12:39:37.829Z,98021.50
2022-12-12T12:43:20.757Z,98002.63
2022-12-12T12:46:07.557Z,98001.84
2022-12-12T12:49:01.673Z,97986.88
2022-12-12T12:51:50.198Z,97986.38
2022-12-12T12:54:44.042Z,97987.44
2022-12-12T12:57:39.927Z,97988.63
2022-12-12T13:00:21.410Z,97991.34
2022-12-12T13:03:11.569Z,97994.41
2022-12-12T13:05:56.997Z,97998.28
2022-12-12T13:08:53.777Z,97989.03
2022-12-12T13:11:42.819Z,97987.63
2022-12-12T13:14:37.901Z,97955.78
2022-12-12T13:17:18.140Z,97958.00
2022-12-12T13:19:53.530Z,97955.16
2022-12-12T13:22:57.421Z,97959.41
2022-12-12T13:26:09.661Z,97954.22
2022-12-12T13:29:32.282Z,97965.66
2022-12-12T13:32:20.220Z,97969.50
2022-12-12T13:34:56.276Z,97970.66
2022-12-12T13:37:24.495Z,97974.91
2022-12-12T13:40:04.795Z,97972.31
2022-12-12T13:43:09.905Z,97975.09
2022-12-12T13:45:56.584Z,97970.47
2022-12-12T13:48:29.763Z,97965.78
2022-12-12T13:51:27.876Z,97964.34
2022-12-12T13:54:12.224Z,97952.44
2022-12-12T13:57:12.336Z,97957.16
2022-12-12T14:00:08.031Z,97967.53
2022-12-12T14:02:41.652Z,97965.63
2022-12-12T14:05:21.569Z,97975.56
2022-12-12T14:08:10.685Z,97965.69
2022-12-12T14:10:50.041Z,97970.41
2022-12-12T14:13:23.276Z,97968.53
2022-12-12T14:16:03.857Z,97969.66
2022-12-12T14:18:59.126Z,97973.75
2022-12-12T14:21:47.757Z,97958.81
2022-12-12T14:24:33.402Z,97967.06
2022-12-12T14:27:10.883Z,97962.69
2022-12-12T14:29:45.883Z,97968.94
2022-12-12T14:32:13.251Z,97963.97
2022-12-12T14:35:47.506Z,97961.56
2022-12-12T14:38:51.921Z,97971.84
2022-12-12T14:41:31.332Z,97966.84
2022-12-12T14:44:35.238Z,97968.41
2022-12-12T14:46:59.234Z,97973.91
2022-12-12T14:49:27.716Z,97965.00
2022-12-12T14:51:58.200Z,97964.13
2022-12-12T14:54:27.234Z,97962.31
2022-12-12T14:56:59.402Z,97968.88
2022-12-12T14:59:39.925Z,97954.50
2022-12-12T15:02:39.179Z,97959.78
2022-12-12T15:05:08.063Z,97949.97
2022-12-12T15:07:39.027Z,97960.56
2022-12-12T15:10:30.631Z,97961.66
2022-12-12T15:12:58.017Z,97957.84
2022-12-12T15:15:33.502Z,97958.19
2022-12-12T15:18:01.926Z,97961.22
2022-12-12T15:20:32.426Z,97961.41
2022-12-12T15:23:07.413Z,97967.75
2022-12-12T15:25:48.765Z,97960.50
2022-12-12T15:28:21.700Z,97968.88
2022-12-12T15:30:55.205Z,97958.72
2022-12-12T15:33:27.696Z,97961.75
2022-12-12T15:36:05.361Z,97950.28
2022-12-12T15:38:34.499Z,97958.16
2022-12-12T15:41:11.187Z,97957.81
2022-12-12T15:43:41.194Z,97963.59
2022-12-12T15:46:15.691Z,97955.38
2022-12-12T15:48:50.404Z,97964.44
2022-12-12T15:51:24.790Z,97948.09
2022-12-12T15:53:55.426Z,97956.00
2022-12-12T15:56:29.151Z,97957.19
2022-12-12T15:59:05.548Z,97955.19
2022-12-12T16:01:33.445Z,97960.50
2022-12-12T16:04:25.048Z,97955.09
2022-12-12T16:06:52.573Z,97956.25
2022-12-12T16:09:24.940Z,97948.81
2022-12-12T16:11:59.518Z,97963.66
2022-12-12T16:14:40.747Z,97954.22
2022-12-12T16:17:25.644Z,97957.16
2022-12-12T16:20:07.519Z,97964.63
2022-12-12T16:22:49.797Z,97962.84
2022-12-12T16:25:29.455Z,97958.94
2022-12-12T16:28:08.454Z,97966.44
2022-12-12T16:30:38.693Z,97958.34
2022-12-12T16:33:35.227Z,97951.38
2022-12-12T16:36:14.442Z,97958.84
2022-12-12T16:38:43.197Z,97955.56
2022-12-12T16:41:18.356Z,97965.09
2022-12-12T16:43:46.103Z,97956.03
2022-12-12T16:46:31.758Z,97959.38
2022-12-12T16:49:09.373Z,97973.19
2022-12-12T16:51:41.365Z,97966.41
2022-12-12T16:54:17.095Z,97963.63
2022-12-12T16:56:50.526Z,97971.81
2022-12-12T16:59:18.322Z,97977.13
2022-12-12T17:01:46.050Z,97967.50
2022-12-12T17:04:23.629Z,97960.69
2022-12-12T17:06:51.554Z,97982.75
2022-12-12T17:09:19.841Z,97985.44
2022-12-12T17:11:47.451Z,97973.47
2022-12-12T17:14:24.699Z,97969.72
2022-12-12T17:16:56.172Z,97982.34
2022-12-12T17:19:23.642Z,97963.63
2022-12-12T17:21:51.048Z,97958.59
2022-12-12T17:24:18.488Z,97953.09
2022-12-12T17:26:46.223Z,97965.19
2022-12-12T17:29:13.617Z,97969.72
2022-12-12T17:31:41.059Z,97959.09
2022-12-12T17:34:08.591Z,97970.94
2022-12-12T17:36:36.023Z,97963.81
2022-12-12T17:39:04.576Z,97950.09
2022-12-12T17:41:31.917Z,97960.00
2022-12-12T17:43:59.819Z,97957.53
2022-12-12T17:46:28.810Z,97943.06
2022-12-12T17:48:59.375Z,97954.09
2022-12-12T17:51:27.724Z,97952.72
2022-12-12T17:53:55.346Z,97957.69
2022-12-12T17:56:25.309Z,97928.06
2022-12-12T17:58:54.719Z,97944.06
2022-12-12T18:01:33.627Z,97944.41
2022-12-12T18:04:03.741Z,97948.28
2022-12-12T18:06:34.629Z,97947.69
2022-12-12T18:09:03.072Z,97939.47
2022-12-12T18:11:35.672Z,97937.56
2022-12-12T18:14:07.576Z,97946.25
2022-12-12T18:16:36.336Z,97933.09
2022-12-12T18:19:04.133Z,97940.69
2022-12-12T18:24:25.454Z,97927.06
2022-12-12T18:26:57.523Z,97925.47
2022-12-12T18:29:26.561Z,97928.38
2022-12-12T18:31:54.521Z,97929.88
2022-12-12T18:34:22.375Z,97922.94
2022-12-12T18:36:50.174Z,97934.03
2022-12-12T18:39:17.996Z,97928.25
2022-12-12T18:41:45.574Z,97926.66
2022-12-12T18:44:16.022Z,97932.44
2022-12-12T18:46:44.681Z,97921.56
2022-12-12T18:49:16.023Z,97919.44
2022-12-12T18:51:47.723Z,97906.34
2022-12-12T18:54:32.627Z,97908.44
2022-12-12T18:57:00.029Z,97915.81
2022-12-12T18:59:27.427Z,97918.00
2022-12-12T19:01:54.921Z,97910.41
2022-12-12T19:04:23.717Z,97922.00
2022-12-12T19:06:51.791Z,97912.38
